createdAt,value
2023-02-12T00:01:25.997Z,100.00
2023-02-12T00:03:53.513Z,100.00
2023-02-12T00:06:21.112Z,100.00
2023-02-12T00:08:52.370Z,100.00
2023-02-12T00:11:25.374Z,100.00
2023-02-12T00:13:53.621Z,100.00
2023-02-12T00:16:26.386Z,100.00
2023-02-12T00:18:56.689Z,100.00
2023-02-12T00:21:25.103Z,100.00
2023-02-12T00:23:52.387Z,100.00
2023-02-12T00:26:22.888Z,100.00
2023-02-12T00:28:52.360Z,100.00
2023-02-12T00:31:27.453Z,100.00
2023-02-12T00:33:59.317Z,100.00
2023-02-12T00:36:31.084Z,100.00
2023-02-12T00:39:00.131Z,100.00
2023-02-12T00:41:27.970Z,100.00
2023-02-12T00:43:55.658Z,100.00
2023-02-12T00:46:23.594Z,100.00
2023-02-12T00:48:50.921Z,100.00
2023-02-12T00:51:20.769Z,100.00
2023-02-12T00:53:47.914Z,100.00
2023-02-12T00:56:15.149Z,100.00
2023-02-12T00:58:42.302Z,100.00
2023-02-12T01:01:09.689Z,100.00
2023-02-12T01:03:37.384Z,100.00
2023-02-12T01:06:06.067Z,100.00
2023-02-12T01:08:33.373Z,100.00
2023-02-12T01:11:04.659Z,100.00
2023-02-12T01:13:34.207Z,100.00
2023-02-12T01:16:09.184Z,100.00
2023-02-12T01:18:38.235Z,100.00
2023-02-12T01:21:23.636Z,100.00
2023-02-12T01:23:51.183Z,100.00
2023-02-12T01:26:21.032Z,100.00
2023-02-12T01:28:56.376Z,100.00
2023-02-12T01:31:28.721Z,100.00
2023-02-12T01:33:59.954Z,100.00
2023-02-12T01:36:30.075Z,100.00
2023-02-12T01:39:02.771Z,100.00
2023-02-12T01:41:42.361Z,100.00
2023-02-12T01:44:19.538Z,100.00
2023-02-12T01:46:50.601Z,100.00
2023-02-12T01:49:30.671Z,100.00
2023-02-12T01:52:20.206Z,100.00
2023-02-12T01:54:49.786Z,100.00
2023-02-12T01:57:18.209Z,100.00
2023-02-12T01:59:50.319Z,100.00
2023-02-12T02:02:17.792Z,100.00
2023-02-12T02:04:51.819Z,100.00
2023-02-12T02:07:19.393Z,100.00
2023-02-12T02:09:46.957Z,100.00
2023-02-12T02:12:33.032Z,100.00
2023-02-12T02:15:02.290Z,100.00
2023-02-12T02:18:19.017Z,100.00
2023-02-12T02:21:53.496Z,100.00
2023-02-12T02:25:02.001Z,100.00
2023-02-12T02:27:59.526Z,100.00
2023-02-12T02:31:18.432Z,100.00
2023-02-12T02:34:18.096Z,100.00
2023-02-12T02:37:14.628Z,100.00
2023-02-12T02:40:14.977Z,100.00
2023-02-12T02:43:09.818Z,100.00
2023-02-12T02:46:07.063Z,100.00
2023-02-12T02:48:47.022Z,100.00
2023-02-12T02:51:25.549Z,100.00
2023-02-12T02:54:05.722Z,100.00
2023-02-12T02:56:38.513Z,100.00
2023-02-12T02:59:13.723Z,100.00
2023-02-12T03:01:55.991Z,100.00
2023-02-12T03:04:42.595Z,100.00
2023-02-12T03:07:42.221Z,100.00
2023-02-12T03:10:19.049Z,100.00
2023-02-12T03:13:14.749Z,100.00
2023-02-12T03:16:19.014Z,100.00
2023-02-12T03:19:05.331Z,100.00
2023-02-12T03:21:55.462Z,100.00
2023-02-12T03:24:36.292Z,100.00
2023-02-12T03:27:27.673Z,100.00
2023-02-12T03:29:55.575Z,100.00
2023-02-12T03:32:58.454Z,100.00
2023-02-12T03:35:43.372Z,100.00
2023-02-12T03:38:34.166Z,100.00
2023-02-12T03:41:35.698Z,100.00
2023-02-12T03:44:23.012Z,100.00
2023-02-12T03:47:08.146Z,100.00
2023-02-12T03:50:11.122Z,100.00
2023-02-12T03:52:38.366Z,100.00
2023-02-12T03:55:06.821Z,100.00
2023-02-12T03:57:44.653Z,100.00
2023-02-12T04:00:19.652Z,100.00
2023-02-12T04:02:48.883Z,100.00
2023-02-12T04:05:22.420Z,100.00
2023-02-12T04:07:51.707Z,100.00
2023-02-12T04:10:27.815Z,100.00
2023-02-12T04:13:43.348Z,100.00
2023-02-12T04:16:50.045Z,100.00
2023-02-12T04:20:00.532Z,100.00
2023-02-12T04:23:31.006Z,100.00
2023-02-12T04:26:35.932Z,100.00
2023-02-12T04:29:31.547Z,100.00
2023-02-12T04:32:17.590Z,100.00
2023-02-12T04:35:18.645Z,100.00
2023-02-12T04:38:23.252Z,100.00
2023-02-12T04:40:51.619Z,100.00
2023-02-12T04:43:36.788Z,100.00
2023-02-12T04:46:07.781Z,100.00
2023-02-12T04:48:49.374Z,100.00
2023-02-12T04:51:16.513Z,100.00
2023-02-12T04:53:43.670Z,100.00
2023-02-12T04:56:14.396Z,100.00
2023-02-12T04:58:42.574Z,100.00
2023-02-12T05:01:10.617Z,100.00
2023-02-12T05:03:38.282Z,100.00
2023-02-12T05:06:08.329Z,100.00
2023-02-12T05:08:36.114Z,100.00
2023-02-12T05:11:09.321Z,100.00
2023-02-12T05:13:38.009Z,100.00
2023-02-12T05:16:07.297Z,100.00
2023-02-12T05:18:35.956Z,100.00
2023-02-12T05:21:05.100Z,100.00
2023-02-12T05:23:37.584Z,100.00
2023-02-12T05:26:17.518Z,100.00
2023-02-12T05:28:45.430Z,100.00
2023-02-12T05:31:20.013Z,100.00
2023-02-12T05:33:50.438Z,100.00
2023-02-12T05:36:22.989Z,100.00
2023-02-12T05:38:51.616Z,100.00
2023-02-12T05:41:24.974Z,100.00
2023-02-12T05:43:53.521Z,100.00
2023-02-12T05:46:22.126Z,100.00
2023-02-12T05:48:49.453Z,100.00
2023-02-12T05:51:22.925Z,100.00
2023-02-12T05:53:55.694Z,100.00
2023-02-12T05:56:33.270Z,100.00
2023-02-12T05:59:08.732Z,100.00
2023-02-12T06:01:40.807Z,100.00
2023-02-12T06:04:18.451Z,100.00
2023-02-12T06:06:46.830Z,100.00
2023-02-12T06:09:14.677Z,100.00
2023-02-12T06:11:42.341Z,100.00
2023-02-12T06:14:15.627Z,100.00
2023-02-12T06:16:51.807Z,100.00
2023-02-12T06:19:20.193Z,100.00
2023-02-12T06:21:47.673Z,100.00
2023-02-12T06:24:17.006Z,100.00
2023-02-12T06:26:44.721Z,100.00
2023-02-12T06:29:13.328Z,100.00
2023-02-12T06:31:41.017Z,100.00
2023-02-12T06:34:11.960Z,100.00
2023-02-12T06:36:44.560Z,100.00
2023-02-12T06:39:15.130Z,100.00
2023-02-12T06:41:43.995Z,100.00
2023-02-12T06:44:13.060Z,100.00
2023-02-12T06:46:40.318Z,100.00
2023-02-12T06:49:07.709Z,100.00
2023-02-12T06:51:36.360Z,100.00
2023-02-12T06:54:03.693Z,100.00
2023-02-12T06:56:30.826Z,100.00
2023-02-12T06:59:01.157Z,100.00
2023-02-12T07:01:30.292Z,100.00
2023-02-12T07:04:03.234Z,100.00
2023-02-12T07:06:34.655Z,100.00
2023-02-12T07:09:03.693Z,100.00
2023-02-12T07:11:37.948Z,100.00
2023-02-12T07:14:07.152Z,100.00
2023-02-12T07:16:34.688Z,100.00
2023-02-12T07:19:01.887Z,100.00
2023-02-12T07:21:29.072Z,100.00
2023-02-12T07:23:56.345Z,100.00
2023-02-12T07:26:23.952Z,100.00
2023-02-12T07:28:51.988Z,100.00
2023-02-12T07:31:24.771Z,100.00
2023-02-12T07:33:58.207Z,100.00
2023-02-12T07:36:29.380Z,100.00
2023-02-12T07:38:58.541Z,100.00
2023-02-12T07:41:34.756Z,100.00
2023-02-12T07:44:10.493Z,100.00
2023-02-12T07:46:48.578Z,100.00
2023-02-12T07:49:22.367Z,100.00
2023-02-12T07:51:50.399Z,100.00
2023-02-12T07:54:18.043Z,100.00
2023-02-12T07:56:46.885Z,100.00
2023-02-12T07:59:18.340Z,100.00
2023-02-12T08:01:51.660Z,100.00
2023-02-12T08:04:23.315Z,100.00
2023-02-12T08:06:55.007Z,100.00
2023-02-12T08:09:27.615Z,100.00
2023-02-12T08:11:55.701Z,100.00
2023-02-12T08:14:23.443Z,100.00
2023-02-12T08:16:51.715Z,100.00
2023-02-12T08:19:23.967Z,100.00
2023-02-12T08:21:55.480Z,100.00
2023-02-12T08:24:24.846Z,100.00
2023-02-12T08:26:53.702Z,100.00
2023-02-12T08:29:29.710Z,100.00
2023-02-12T08:32:03.423Z,100.00
2023-02-12T08:34:35.205Z,100.00
2023-02-12T08:37:04.828Z,100.00
2023-02-12T08:39:31.980Z,100.00
2023-02-12T08:42:01.645Z,100.00
2023-02-12T08:44:29.355Z,100.00
2023-02-12T08:46:56.599Z,100.00
2023-02-12T08:49:28.447Z,100.00
2023-02-12T08:51:58.336Z,100.00
2023-02-12T08:54:30.022Z,100.00
2023-02-12T08:57:00.793Z,100.00
2023-02-12T08:59:28.908Z,100.00
2023-02-12T09:01:56.108Z,100.00
2023-02-12T09:04:27.695Z,100.00
2023-02-12T09:06:56.215Z,100.00
2023-02-12T09:09:23.534Z,100.00
2023-02-12T09:11:50.902Z,100.00
2023-02-12T09:14:26.004Z,100.00
2023-02-12T09:16:54.484Z,100.00
2023-02-12T09:19:21.881Z,100.00
2023-02-12T09:21:56.320Z,100.00
2023-02-12T09:24:27.414Z,100.00
2023-02-12T09:26:54.823Z,100.00
2023-02-12T09:29:22.235Z,100.00
2023-02-12T09:31:49.570Z,100.00
2023-02-12T09:34:16.820Z,100.00
2023-02-12T09:36:44.028Z,100.00
2023-02-12T09:39:11.325Z,100.00
2023-02-12T09:42:32.325Z,100.00
2023-02-12T09:45:17.065Z,100.00
2023-02-12T09:48:13.746Z,100.00
2023-02-12T09:50:57.810Z,100.00
2023-02-12T09:53:31.491Z,100.00
2023-02-12T09:55:59.421Z,100.00
2023-02-12T09:58:53.621Z,100.00
2023-02-12T10:01:23.017Z,100.00
2023-02-12T10:03:52.353Z,100.00
2023-02-12T10:06:26.963Z,100.00
2023-02-12T10:09:39.834Z,100.00
2023-02-12T10:13:19.836Z,100.00
2023-02-12T10:15:52.363Z,100.00
2023-02-12T10:19:21.582Z,100.00
2023-02-12T10:22:51.374Z,96.32
2023-02-12T10:25:53.026Z,93.48
2023-02-12T10:28:34.960Z,89.48
2023-02-12T10:31:37.168Z,100.00
2023-02-12T10:34:32.362Z,100.00
2023-02-12T10:37:32.489Z,92.01
2023-02-12T10:40:20.917Z,80.15
2023-02-12T10:42:53.465Z,68.46
2023-02-12T10:45:33.915Z,56.02
2023-02-12T10:48:22.084Z,43.09
2023-02-12T10:51:56.814Z,46.67
2023-02-12T10:54:45.546Z,38.55
2023-02-12T10:57:25.294Z,39.21
2023-02-12T11:00:23.703Z,45.72
2023-02-12T11:03:12.903Z,39.68
2023-02-12T11:05:44.269Z,41.37
2023-02-12T11:08:37.237Z,37.68
2023-02-12T11:11:23.120Z,35.54
2023-02-12T11:14:18.588Z,38.44
2023-02-12T11:16:59.958Z,34.28
2023-02-12T11:19:34.957Z,32.12
2023-02-12T11:22:18.516Z,33.20
2023-02-12T11:24:49.524Z,31.07
2023-02-12T11:27:16.606Z,33.53
2023-02-12T11:29:51.149Z,29.58
2023-02-12T11:32:20.518Z,28.27
2023-02-12T11:35:15.388Z,31.64
2023-02-12T11:37:45.308Z,31.17
2023-02-12T11:40:25.678Z,28.86
2023-02-12T11:43:06.706Z,26.29
2023-02-12T11:45:47.512Z,31.47
2023-02-12T11:48:26.274Z,28.86
2023-02-12T11:50:57.640Z,28.07
2023-02-12T11:53:33.333Z,32.82
2023-02-12T11:56:12.324Z,33.61
2023-02-12T11:58:40.759Z,34.88
2023-02-12T12:01:30.491Z,35.88
2023-02-12T12:04:20.530Z,36.93
2023-02-12T12:07:05.474Z,34.36
2023-02-12T12:09:50.458Z,32.05
2023-02-12T12:12:30.911Z,33.52
2023-02-12T12:15:41.723Z,37.11
2023-02-12T12:19:10.033Z,37.96
2023-02-12T12:22:22.636Z,39.35
2023-02-12T12:25:14.929Z,38.51
2023-02-12T12:28:02.881Z,40.27
2023-02-12T12:31:12.462Z,35.80
2023-02-12T12:34:17.043Z,36.74
2023-02-12T12:37:20.553Z,37.55
2023-02-12T12:40:21.129Z,38.88
2023-02-12T12:43:22.283Z,37.22
2023-02-12T12:46:31.484Z,37.57
2023-02-12T12:49:54.997Z,36.30
2023-02-12T12:52:51.138Z,35.42
2023-02-12T12:55:45.757Z,37.93
2023-02-12T12:58:49.408Z,38.50
2023-02-12T13:01:44.499Z,35.95
2023-02-12T13:05:19.525Z,37.27
2023-02-12T13:08:12.520Z,37.85
2023-02-12T13:11:06.546Z,37.23
2023-02-12T13:13:41.044Z,33.80
2023-02-12T13:16:35.511Z,35.27
2023-02-12T13:19:48.850Z,34.15
2023-02-12T13:22:45.405Z,37.46
2023-02-12T13:25:36.433Z,35.05
2023-02-12T13:28:09.986Z,37.56
2023-02-12T13:30:45.407Z,37.52
2023-02-12T13:33:36.779Z,37.75
2023-02-12T13:36:08.060Z,33.61
2023-02-12T13:38:43.443Z,34.15
2023-02-12T13:41:12.621Z,36.05
2023-02-12T13:43:53.518Z,33.26
2023-02-12T13:46:51.421Z,32.32
2023-02-12T13:50:17.456Z,34.99
2023-02-12T13:53:42.701Z,35.40
2023-02-12T13:56:54.026Z,34.31
2023-02-12T13:59:34.112Z,32.88
2023-02-12T14:02:05.829Z,32.60
2023-02-12T14:05:02.550Z,29.78
2023-02-12T14:07:48.259Z,31.55
2023-02-12T14:10:42.347Z,32.36
2023-02-12T14:13:19.704Z,33.04
2023-02-12T14:15:55.617Z,32.99
2023-02-12T14:18:35.748Z,33.57
2023-02-12T14:21:12.195Z,33.56
2023-02-12T14:23:42.221Z,33.84
2023-02-12T14:26:15.466Z,33.72
2023-02-12T14:29:04.978Z,34.36
2023-02-12T14:31:38.578Z,34.29
2023-02-12T14:34:05.703Z,34.71
2023-02-12T14:36:32.689Z,34.30
2023-02-12T14:39:05.097Z,35.49
2023-02-12T14:41:41.449Z,35.85
2023-02-12T14:44:58.803Z,36.51
2023-02-12T14:47:28.981Z,36.58
2023-02-12T14:50:11.937Z,36.41
2023-02-12T14:52:54.064Z,36.80
2023-02-12T14:55:33.731Z,37.31
2023-02-12T14:58:06.910Z,37.63
2023-02-12T15:00:41.775Z,37.06
2023-02-12T15:03:18.896Z,37.11
2023-02-12T15:06:18.768Z,36.22
2023-02-12T15:10:02.723Z,35.63
2023-02-12T15:13:01.756Z,34.89
2023-02-12T15:15:57.032Z,33.18
2023-02-12T15:18:58.356Z,33.66
2023-02-12T15:21:31.764Z,32.84
2023-02-12T15:24:10.848Z,32.91
2023-02-12T15:26:52.096Z,33.07
2023-02-12T15:29:28.571Z,35.83
2023-02-12T15:32:05.069Z,37.48
2023-02-12T15:34:39.976Z,37.50
2023-02-12T15:37:09.613Z,34.64
2023-02-12T15:39:47.994Z,33.45
2023-02-12T15:42:42.866Z,31.02
2023-02-12T15:45:19.946Z,30.64
2023-02-12T15:48:09.584Z,29.88
2023-02-12T15:50:53.499Z,30.47
2023-02-12T15:53:24.317Z,30.59
2023-02-12T15:55:51.971Z,30.32
2023-02-12T15:59:03.259Z,30.05
2023-02-12T16:01:35.156Z,32.66
2023-02-12T16:04:08.481Z,32.75
2023-02-12T16:06:36.990Z,32.61
2023-02-12T16:09:15.777Z,30.95
2023-02-12T16:11:46.907Z,30.57
2023-02-12T16:14:43.296Z,31.12
2023-02-12T16:17:32.366Z,33.48
2023-02-12T16:20:19.834Z,35.53
2023-02-12T16:22:51.256Z,37.00
2023-02-12T16:25:33.649Z,38.09
2023-02-12T16:28:18.718Z,41.21
2023-02-12T16:30:48.276Z,41.47
2023-02-12T16:33:40.543Z,43.40
2023-02-12T16:36:15.988Z,44.33
2023-02-12T16:38:53.262Z,45.49
2023-02-12T16:41:30.650Z,45.29
2023-02-12T16:44:00.500Z,46.25
2023-02-12T16:46:31.744Z,47.88
2023-02-12T16:49:01.452Z,48.99
2023-02-12T16:51:36.200Z,52.25
2023-02-12T16:54:26.071Z,51.61
2023-02-12T16:56:53.215Z,53.36
2023-02-12T16:59:20.557Z,62.29
2023-02-12T17:02:12.784Z,56.46
2023-02-12T17:04:40.834Z,60.34
2023-02-12T17:07:29.204Z,62.29
2023-02-12T17:09:56.603Z,63.31
2023-02-12T17:12:24.249Z,66.34
2023-02-12T17:14:51.476Z,61.88
2023-02-12T17:17:18.995Z,71.50
2023-02-12T17:19:46.310Z,73.63
2023-02-12T17:22:26.040Z,65.85
2023-02-12T17:24:53.343Z,77.11
2023-02-12T17:27:21.061Z,78.82
2023-02-12T17:29:48.377Z,69.98
2023-02-12T17:32:16.239Z,79.51
2023-02-12T17:34:48.923Z,75.27
2023-02-12T17:37:17.471Z,71.79
2023-02-12T17:39:44.809Z,71.77
2023-02-12T17:42:12.160Z,72.44
2023-02-12T17:44:40.118Z,82.48
2023-02-12T17:47:07.251Z,85.57
2023-02-12T17:49:35.474Z,82.49
2023-02-12T17:52:04.782Z,78.50
2023-02-12T17:54:33.666Z,79.84
2023-02-12T17:57:00.862Z,81.63
2023-02-12T17:59:28.104Z,79.50
2023-02-12T18:01:55.818Z,82.03
2023-02-12T18:04:23.068Z,77.80
2023-02-12T18:06:50.278Z,78.50
2023-02-12T18:09:17.389Z,85.13
2023-02-12T18:11:44.619Z,83.83
2023-02-12T18:14:12.785Z,83.20
2023-02-12T18:16:41.056Z,84.63
2023-02-12T18:19:08.374Z,92.75
2023-02-12T18:21:35.619Z,85.99
2023-02-12T18:24:03.595Z,86.10
2023-02-12T18:26:34.694Z,91.40
2023-02-12T18:29:02.017Z,100.00
2023-02-12T18:31:29.944Z,97.96
2023-02-12T18:33:57.350Z,90.26
2023-02-12T18:36:24.702Z,90.89
2023-02-12T18:38:52.937Z,100.00
2023-02-12T18:41:28.273Z,98.23
2023-02-12T18:43:58.685Z,100.00
2023-02-12T18:46:30.521Z,98.67
2023-02-12T18:48:59.183Z,100.00
2023-02-12T18:51:30.938Z,100.00
2023-02-12T18:54:07.612Z,100.00
2023-02-12T18:56:41.023Z,100.00
2023-02-12T18:59:11.520Z,100.00
2023-02-12T19:01:38.978Z,100.00
2023-02-12T19:04:12.700Z,100.00
2023-02-12T19:06:48.967Z,100.00
2023-02-12T19:09:20.222Z,100.00
2023-02-12T19:11:50.402Z,100.00
2023-02-12T19:14:20.948Z,100.00
2023-02-12T19:16:48.966Z,100.00
2023-02-12T19:19:17.659Z,100.00
2023-02-12T19:21:44.865Z,100.00
2023-02-12T19:24:15.960Z,100.00
2023-02-12T19:26:46.743Z,100.00
2023-02-12T19:29:14.138Z,100.00
2023-02-12T19:31:46.252Z,100.00
2023-02-12T19:34:19.571Z,100.00
2023-02-12T19:36:49.432Z,100.00
2023-02-12T19:39:24.116Z,100.00
2023-02-12T19:41:52.658Z,100.00
2023-02-12T19:44:24.179Z,100.00
2023-02-12T19:46:52.883Z,100.00
2023-02-12T19:49:27.557Z,100.00
2023-02-12T19:51:55.076Z,100.00
2023-02-12T19:54:24.185Z,100.00
2023-02-12T19:56:53.758Z,100.00
2023-02-12T19:59:24.736Z,100.00
2023-02-12T20:01:53.353Z,100.00
2023-02-12T20:04:24.357Z,100.00
2023-02-12T20:06:52.621Z,100.00
2023-02-12T20:09:22.422Z,100.00
2023-02-12T20:11:49.698Z,100.00
2023-02-12T20:14:17.622Z,100.00
2023-02-12T20:16:46.675Z,100.00
2023-02-12T20:19:23.252Z,100.00
2023-02-12T20:21:56.512Z,100.00
2023-02-12T20:24:29.722Z,100.00
2023-02-12T20:27:00.345Z,100.00
2023-02-12T20:29:28.685Z,100.00
2023-02-12T20:31:56.427Z,100.00
2023-02-12T20:34:23.716Z,100.00
2023-02-12T20:36:51.039Z,100.00
2023-02-12T20:39:20.800Z,100.00
2023-02-12T20:41:49.126Z,100.00
2023-02-12T20:44:21.345Z,100.00
2023-02-12T20:46:55.704Z,100.00
2023-02-12T20:49:25.590Z,100.00
2023-02-12T20:51:53.153Z,100.00
2023-02-12T20:54:20.969Z,100.00
2023-02-12T20:56:50.593Z,100.00
2023-02-12T20:59:18.778Z,100.00
2023-02-12T21:01:46.784Z,100.00
2023-02-12T21:04:17.966Z,100.00
2023-02-12T21:06:47.309Z,100.00
2023-02-12T21:09:15.355Z,100.00
2023-02-12T21:11:45.468Z,100.00
2023-02-12T21:14:23.889Z,100.00
2023-02-12T21:16:54.845Z,100.00
2023-02-12T21:19:24.640Z,100.00
2023-02-12T21:21:52.276Z,100.00
2023-02-12T21:24:24.516Z,100.00
2023-02-12T21:26:54.955Z,100.00
2023-02-12T21:29:23.270Z,100.00
2023-02-12T21:31:51.550Z,100.00
2023-02-12T21:34:23.416Z,100.00
2023-02-12T21:36:54.718Z,100.00
2023-02-12T21:39:27.242Z,100.00
2023-02-12T21:42:00.883Z,100.00
2023-02-12T21:44:28.997Z,100.00
2023-02-12T21:46:57.098Z,100.00
2023-02-12T21:49:25.122Z,100.00
2023-02-12T21:52:06.438Z,100.00
2023-02-12T21:54:33.926Z,100.00
2023-02-12T21:57:01.235Z,100.00
2023-02-12T21:59:31.576Z,100.00
2023-02-12T22:02:00.651Z,100.00
2023-02-12T22:04:28.059Z,100.00
2023-02-12T22:06:57.899Z,100.00
2023-02-12T22:09:25.361Z,100.00
2023-02-12T22:11:53.617Z,100.00
2023-02-12T22:14:22.232Z,100.00
2023-02-12T22:16:50.436Z,100.00
2023-02-12T22:19:17.810Z,100.00
2023-02-12T22:21:45.431Z,100.00
2023-02-12T22:24:16.012Z,100.00
2023-02-12T22:26:44.826Z,100.00
2023-02-12T22:29:15.779Z,100.00
2023-02-12T22:31:46.552Z,100.00
2023-02-12T22:34:19.111Z,100.00
2023-02-12T22:36:47.637Z,100.00
2023-02-12T22:39:15.251Z,100.00
2023-02-12T22:41:43.069Z,100.00
2023-02-12T22:44:12.897Z,100.00
2023-02-12T22:46:42.957Z,100.00
2023-02-12T22:49:10.414Z,100.00
2023-02-12T22:51:39.495Z,100.00
2023-02-12T22:54:14.718Z,100.00
2023-02-12T22:56:43.067Z,100.00
2023-02-12T22:59:12.029Z,100.00
2023-02-12T23:01:39.799Z,100.00
2023-02-12T23:04:07.435Z,100.00
2023-02-12T23:06:34.711Z,100.00
2023-02-12T23:09:04.936Z,100.00
2023-02-12T23:11:33.814Z,100.00
2023-02-12T23:14:02.025Z,100.00
2023-02-12T23:16:29.460Z,100.00
2023-02-12T23:19:01.858Z,100.00
2023-02-12T23:21:32.439Z,100.00
2023-02-12T23:24:00.187Z,100.00
2023-02-12T23:26:29.459Z,100.00
2023-02-12T23:28:57.453Z,100.00
2023-02-12T23:31:25.770Z,100.00
2023-02-12T23:33:53.008Z,100.00
2023-02-12T23:36:20.154Z,100.00
2023-02-12T23:38:47.285Z,100.00
2023-02-12T23:41:15.025Z,100.00
2023-02-12T23:43:42.330Z,100.00
2023-02-12T23:46:09.713Z,100.00
2023-02-12T23:48:37.335Z,100.00
2023-02-12T23:51:05.301Z,100.00
2023-02-12T23:53:32.460Z,100.00
2023-02-12T23:55:59.585Z,100.00
2023-02-12T23:58:26.948Z,100.00
